createdAt,value
2022-11-05T00:02:30.060Z,10.38
2022-11-05T00:05:14.913Z,10.18
2022-11-05T00:08:09.360Z,10.57
2022-11-05T00:10:38.483Z,11.77
2022-11-05T00:13:25.684Z,12.68
2022-11-05T00:16:10.914Z,10.38
2022-11-05T00:18:37.522Z,13.20
2022-11-05T00:21:04.742Z,10.63
2022-11-05T00:23:49.770Z,10.95
2022-11-05T00:26:16.434Z,13.70
2022-11-05T00:28:43.948Z,9.45
2022-11-05T00:31:14.239Z,11.15
2022-11-05T00:33:42.833Z,12.48
2022-11-05T00:36:10.729Z,14.40
2022-11-05T00:38:37.586Z,13.20
2022-11-05T00:41:04.225Z,11.15
2022-11-05T00:43:53.994Z,14.20
2022-11-05T00:46:20.498Z,10.40
2022-11-05T00:49:05.376Z,11.02
2022-11-05T00:51:31.988Z,14.40
2022-11-05T00:53:58.498Z,12.48
2022-11-05T00:56:25.165Z,13.52
2022-11-05T00:58:51.825Z,13.65
2022-11-05T01:01:18.518Z,13.98
2022-11-05T01:03:50.426Z,12.75
2022-11-05T01:06:18.170Z,17.70
2022-11-05T01:08:46.262Z,15.13
2022-11-05T01:11:34.173Z,13.60
2022-11-05T01:14:12.356Z,15.85
2022-11-05T01:16:40.285Z,14.93
2022-11-05T01:19:08.975Z,14.30
2022-11-05T01:21:35.770Z,15.88
2022-11-05T01:24:05.696Z,14.48
2022-11-05T01:26:32.538Z,12.88
2022-11-05T01:29:02.403Z,16.25
2022-11-05T01:31:31.724Z,12.93
2022-11-05T01:34:03.688Z,21.65
2022-11-05T01:36:32.490Z,16.48
2022-11-05T01:38:59.097Z,17.92
2022-11-05T01:41:25.762Z,18.90
2022-11-05T01:43:59.286Z,15.80
2022-11-05T01:46:52.343Z,16.02
2022-11-05T01:49:29.733Z,17.63
2022-11-05T01:51:58.178Z,13.80
2022-11-05T01:54:28.746Z,13.68
2022-11-05T01:57:03.752Z,16.13
2022-11-05T01:59:45.975Z,11.68
2022-11-05T02:02:12.830Z,17.55
2022-11-05T02:04:54.750Z,12.50
2022-11-05T02:07:25.631Z,17.02
2022-11-05T02:10:02.342Z,16.40
2022-11-05T02:12:33.303Z,17.98
2022-11-05T02:15:00.287Z,16.55
2022-11-05T02:17:33.433Z,17.02
2022-11-05T02:20:18.383Z,12.15
2022-11-05T02:22:56.764Z,15.10
2022-11-05T02:25:35.429Z,13.13
2022-11-05T02:28:43.130Z,14.30
2022-11-05T02:31:22.975Z,13.95
2022-11-05T02:34:18.900Z,19.05
2022-11-05T02:36:49.666Z,15.02
2022-11-05T02:39:30.150Z,13.38
2022-11-05T02:42:05.830Z,13.93
2022-11-05T02:45:05.875Z,15.10
2022-11-05T02:47:38.368Z,13.75
2022-11-05T02:50:33.624Z,13.95
2022-11-05T02:53:06.078Z,15.00
2022-11-05T02:55:54.696Z,13.10
2022-11-05T02:58:21.555Z,11.43
2022-11-05T03:00:56.002Z,13.70
2022-11-05T03:03:39.047Z,14.10
2022-11-05T03:06:22.914Z,10.27
2022-11-05T03:09:08.472Z,13.43
2022-11-05T03:11:49.742Z,12.50
2022-11-05T03:14:22.395Z,11.02
2022-11-05T03:17:24.413Z,12.82
2022-11-05T03:20:08.654Z,15.35
2022-11-05T03:22:41.485Z,13.25
2022-11-05T03:25:15.790Z,9.15
2022-11-05T03:27:47.758Z,11.50
2022-11-05T03:30:16.308Z,11.13
2022-11-05T03:32:48.933Z,17.13
2022-11-05T03:35:22.766Z,14.55
2022-11-05T03:37:53.308Z,12.65
2022-11-05T03:40:23.826Z,15.00
2022-11-05T03:42:54.307Z,12.88
2022-11-05T03:45:28.032Z,12.63
2022-11-05T03:47:59.038Z,13.88
2022-11-05T03:51:04.474Z,12.35
2022-11-05T03:53:35.081Z,12.60
2022-11-05T03:56:11.740Z,14.65
2022-11-05T03:58:42.950Z,10.80
2022-11-05T04:01:09.733Z,15.35
2022-11-05T04:03:36.741Z,13.90
2022-11-05T04:06:23.976Z,10.32
2022-11-05T04:09:09.553Z,10.57
2022-11-05T04:11:54.977Z,9.93
2022-11-05T04:14:21.811Z,12.30
2022-11-05T04:17:06.287Z,8.43
2022-11-05T04:19:53.250Z,15.23
2022-11-05T04:22:38.672Z,11.45
2022-11-05T04:25:05.463Z,11.23
2022-11-05T04:27:32.498Z,10.50
2022-11-05T04:30:17.682Z,11.43
2022-11-05T04:33:08.537Z,11.23
2022-11-05T04:35:40.678Z,12.48
2022-11-05T04:38:16.277Z,10.60
2022-11-05T04:40:44.472Z,12.45
2022-11-05T04:43:15.964Z,13.18
2022-11-05T04:45:43.017Z,11.07
2022-11-05T04:48:09.866Z,12.50
2022-11-05T04:50:36.784Z,15.40
2022-11-05T04:53:03.768Z,10.40
2022-11-05T04:55:30.443Z,18.75
2022-11-05T04:57:57.311Z,11.90
2022-11-05T05:00:24.353Z,17.75
2022-11-05T05:02:51.061Z,13.75
2022-11-05T05:05:17.732Z,14.48
2022-11-05T05:07:44.271Z,10.70
2022-11-05T05:10:11.810Z,12.88
2022-11-05T05:12:38.435Z,12.35
2022-11-05T05:15:05.471Z,13.77
2022-11-05T05:17:32.128Z,9.98
2022-11-05T05:20:17.490Z,9.50
2022-11-05T05:22:44.004Z,9.15
2022-11-05T05:25:10.615Z,10.02
2022-11-05T05:27:37.569Z,11.85
2022-11-05T05:30:04.980Z,9.23
2022-11-05T05:32:31.776Z,12.38
2022-11-05T05:34:58.446Z,9.27
2022-11-05T05:37:24.967Z,9.43
2022-11-05T05:39:53.542Z,12.05
2022-11-05T05:42:22.883Z,15.75
2022-11-05T05:44:49.586Z,12.77
2022-11-05T05:47:16.087Z,12.52
2022-11-05T05:49:42.666Z,11.52
2022-11-05T05:52:09.363Z,13.00
2022-11-05T05:54:41.297Z,11.50
2022-11-05T05:57:09.234Z,11.98
2022-11-05T05:59:35.870Z,8.55
2022-11-05T06:02:02.635Z,14.60
2022-11-05T06:04:29.249Z,8.48
2022-11-05T06:06:55.819Z,11.35
2022-11-05T06:09:22.850Z,9.90
2022-11-05T06:11:49.468Z,10.73
2022-11-05T06:14:16.085Z,9.32
2022-11-05T06:16:42.573Z,15.15
2022-11-05T06:19:09.107Z,14.90
2022-11-05T06:21:35.786Z,16.88
2022-11-05T06:24:02.929Z,14.98
2022-11-05T06:26:30.306Z,16.90
2022-11-05T06:28:56.869Z,17.75
2022-11-05T06:31:23.927Z,18.35
2022-11-05T06:33:50.765Z,16.85
2022-11-05T06:36:19.130Z,14.35
2022-11-05T06:38:45.876Z,12.65
2022-11-05T06:41:12.534Z,15.38
2022-11-05T06:43:39.301Z,18.15
2022-11-05T06:46:06.528Z,12.98
2022-11-05T06:48:34.405Z,20.00
2022-11-05T06:51:01.172Z,15.40
2022-11-05T06:53:28.067Z,12.70
2022-11-05T06:55:57.427Z,10.93
2022-11-05T06:58:23.954Z,13.27
2022-11-05T07:00:50.796Z,11.98
2022-11-05T07:03:17.346Z,15.55
2022-11-05T07:05:48.066Z,9.50
2022-11-05T07:08:15.111Z,10.43
2022-11-05T07:10:41.765Z,7.80
2022-11-05T07:13:09.062Z,9.75
2022-11-05T07:15:36.975Z,12.85
2022-11-05T07:18:03.981Z,10.43
2022-11-05T07:20:33.848Z,12.60
2022-11-05T07:23:07.102Z,10.68
2022-11-05T07:25:34.520Z,11.80
2022-11-05T07:28:02.017Z,14.82
2022-11-05T07:30:29.236Z,13.70
2022-11-05T07:32:56.009Z,20.85
2022-11-05T07:35:22.850Z,16.50
2022-11-05T07:37:51.645Z,20.35
2022-11-05T07:40:21.530Z,17.13
2022-11-05T07:42:59.760Z,16.00
2022-11-05T07:45:29.058Z,15.80
2022-11-05T07:48:01.278Z,13.52
2022-11-05T07:50:30.804Z,10.85
2022-11-05T07:53:12.216Z,11.77
2022-11-05T07:55:41.304Z,12.48
2022-11-05T07:58:08.079Z,11.45
2022-11-05T08:00:34.820Z,12.45
2022-11-05T08:03:08.760Z,10.73
2022-11-05T08:05:40.898Z,13.02
2022-11-05T08:08:09.487Z,14.18
2022-11-05T08:10:37.613Z,13.48
2022-11-05T08:13:05.479Z,10.77
2022-11-05T08:15:32.634Z,14.02
2022-11-05T08:18:00.717Z,13.18
2022-11-05T08:20:30.644Z,10.60
2022-11-05T08:22:57.613Z,14.13
2022-11-05T08:25:27.416Z,11.90
2022-11-05T08:28:11.358Z,10.25
2022-11-05T08:30:38.465Z,11.75
2022-11-05T08:33:11.025Z,15.40
2022-11-05T08:35:39.215Z,15.30
2022-11-05T08:38:07.776Z,11.60
2022-11-05T08:40:38.704Z,15.43
2022-11-05T08:43:07.186Z,12.13
2022-11-05T08:45:38.522Z,10.05
2022-11-05T08:48:15.147Z,12.77
2022-11-05T08:50:42.958Z,10.32
2022-11-05T08:53:10.751Z,13.02
2022-11-05T08:55:38.532Z,12.88
2022-11-05T08:58:10.610Z,13.32
2022-11-05T09:00:38.753Z,17.25
2022-11-05T09:03:07.226Z,11.65
2022-11-05T09:05:39.078Z,12.73
2022-11-05T09:08:14.522Z,11.20
2022-11-05T09:10:41.737Z,16.70
2022-11-05T09:13:17.844Z,10.68
2022-11-05T09:15:46.150Z,12.57
2022-11-05T09:18:14.139Z,10.90
2022-11-05T09:20:41.313Z,12.25
2022-11-05T09:23:09.802Z,9.27
2022-11-05T09:25:36.565Z,15.00
2022-11-05T09:28:16.120Z,10.15
2022-11-05T09:30:46.304Z,11.25
2022-11-05T09:33:13.628Z,10.30
2022-11-05T09:35:41.322Z,10.70
2022-11-05T09:38:07.983Z,11.82
2022-11-05T09:40:48.271Z,8.50
2022-11-05T09:43:31.245Z,11.05
2022-11-05T09:46:02.195Z,15.95
2022-11-05T09:48:31.023Z,12.27
2022-11-05T09:50:58.677Z,11.32
2022-11-05T09:53:26.139Z,13.05
2022-11-05T09:55:58.783Z,14.00
2022-11-05T09:58:50.558Z,11.73
2022-11-05T10:01:24.188Z,9.80
2022-11-05T10:03:56.962Z,8.02
2022-11-05T10:06:26.362Z,11.52
2022-11-05T10:09:01.528Z,12.77
2022-11-05T10:11:58.004Z,9.07
2022-11-05T10:14:30.448Z,12.40
2022-11-05T10:17:16.426Z,7.63
2022-11-05T10:19:49.496Z,9.93
2022-11-05T10:22:18.265Z,12.23
2022-11-05T10:24:48.219Z,11.90
2022-11-05T10:27:29.077Z,11.18
2022-11-05T10:29:56.164Z,9.48
2022-11-05T10:32:37.303Z,7.95
2022-11-05T10:35:07.161Z,12.00
2022-11-05T10:37:39.595Z,11.68
2022-11-05T10:40:22.261Z,14.02
2022-11-05T10:43:10.596Z,10.18
2022-11-05T10:46:19.699Z,10.35
2022-11-05T10:48:52.907Z,14.60
2022-11-05T10:51:19.613Z,7.25
2022-11-05T10:54:02.169Z,6.72
2022-11-05T10:56:40.391Z,8.15
2022-11-05T10:59:23.261Z,8.07
2022-11-05T11:02:01.527Z,7.45
2022-11-05T11:04:36.526Z,6.57
2022-11-05T11:07:04.714Z,5.38
2022-11-05T11:09:35.322Z,7.82
2022-11-05T11:12:15.759Z,4.93
2022-11-05T11:14:42.703Z,8.25
2022-11-05T11:17:26.978Z,6.32
2022-11-05T11:20:17.346Z,4.85
2022-11-05T11:22:59.085Z,5.35
2022-11-05T11:25:30.546Z,5.72
2022-11-05T11:28:04.226Z,4.30
2022-11-05T11:30:31.407Z,4.68
2022-11-05T11:33:09.213Z,5.75
2022-11-05T11:35:38.279Z,5.65
2022-11-05T11:38:06.914Z,5.72
2022-11-05T11:40:37.862Z,6.50
2022-11-05T11:43:23.862Z,4.90
2022-11-05T11:45:53.914Z,5.65
2022-11-05T11:48:28.258Z,6.72
2022-11-05T11:50:56.052Z,5.03
2022-11-05T11:53:57.131Z,3.75
2022-11-05T11:56:23.897Z,5.05
2022-11-05T11:58:53.076Z,5.82
2022-11-05T12:01:37.927Z,8.38
2022-11-05T12:04:19.770Z,4.28
2022-11-05T12:07:10.390Z,3.85
2022-11-05T12:09:52.366Z,6.25
2022-11-05T12:12:30.607Z,5.25
2022-11-05T12:15:15.244Z,5.53
2022-11-05T12:17:54.497Z,8.70
2022-11-05T12:20:48.281Z,6.28
2022-11-05T12:23:52.552Z,5.60
2022-11-05T12:26:46.638Z,8.20
2022-11-05T12:29:46.957Z,4.75
2022-11-05T12:32:22.917Z,8.90
2022-11-05T12:35:23.423Z,6.28
2022-11-05T12:38:12.284Z,7.35
2022-11-05T12:40:44.546Z,9.65
2022-11-05T12:43:36.922Z,5.85
2022-11-05T12:46:37.080Z,6.13
2022-11-05T12:49:34.522Z,7.38
2022-11-05T12:52:16.378Z,6.72
2022-11-05T12:55:01.934Z,3.47
2022-11-05T12:57:32.209Z,5.95
2022-11-05T13:00:06.869Z,7.43
2022-11-05T13:02:40.805Z,4.13
2022-11-05T13:05:21.172Z,5.47
2022-11-05T13:08:13.547Z,4.32
2022-11-05T13:10:45.628Z,3.83
2022-11-05T13:13:20.955Z,7.82
2022-11-05T13:16:02.639Z,4.20
2022-11-05T13:19:03.656Z,4.10
2022-11-05T13:21:31.253Z,4.13
2022-11-05T13:24:13.719Z,4.95
2022-11-05T13:27:24.911Z,4.30
2022-11-05T13:30:04.990Z,8.80
2022-11-05T13:32:38.593Z,5.28
2022-11-05T13:35:14.326Z,6.13
2022-11-05T13:38:03.353Z,5.45
2022-11-05T13:41:06.735Z,7.18
2022-11-05T13:43:52.361Z,5.47
2022-11-05T13:46:50.131Z,3.92
2022-11-05T13:49:43.977Z,5.13
2022-11-05T13:52:38.549Z,4.30
2022-11-05T13:55:32.995Z,3.55
2022-11-05T13:58:02.589Z,5.97
2022-11-05T14:00:34.931Z,4.68
2022-11-05T14:03:05.376Z,4.00
2022-11-05T14:05:39.854Z,4.60
2022-11-05T14:08:28.186Z,6.30
2022-11-05T14:11:05.297Z,5.50
2022-11-05T14:13:42.763Z,6.93
2022-11-05T14:16:22.058Z,3.72
2022-11-05T14:19:15.661Z,4.80
2022-11-05T14:21:49.858Z,4.63
2022-11-05T14:24:27.480Z,3.58
2022-11-05T14:27:05.963Z,4.95
2022-11-05T14:29:49.190Z,7.78
2022-11-05T14:32:24.546Z,3.13
2022-11-05T14:35:15.898Z,5.22
2022-11-05T14:38:00.442Z,8.35
2022-11-05T14:40:32.254Z,4.10
2022-11-05T14:43:20.572Z,4.57
2022-11-05T14:46:04.911Z,4.65
2022-11-05T14:48:37.635Z,8.02
2022-11-05T14:51:35.314Z,4.38
2022-11-05T14:54:37.163Z,7.32
2022-11-05T14:57:04.975Z,5.72
2022-11-05T14:59:51.754Z,8.07
2022-11-05T15:02:23.985Z,4.03
2022-11-05T15:04:53.144Z,7.15
2022-11-05T15:07:34.460Z,6.05
2022-11-05T15:10:12.560Z,7.15
2022-11-05T15:12:47.639Z,9.77
2022-11-05T15:15:29.886Z,4.20
2022-11-05T15:18:05.762Z,3.50
2022-11-05T15:20:41.595Z,4.70
2022-11-05T15:23:13.537Z,4.82
2022-11-05T15:26:12.761Z,5.13
2022-11-05T15:28:46.791Z,7.03
2022-11-05T15:31:16.363Z,4.30
2022-11-05T15:33:50.147Z,6.97
2022-11-05T15:36:29.339Z,9.00
2022-11-05T15:39:27.473Z,4.25
2022-11-05T15:41:44.712Z,8.45
2022-11-05T15:44:33.107Z,5.80
2022-11-05T15:47:15.429Z,8.02
2022-11-05T15:49:45.547Z,4.38
2022-11-05T15:52:16.772Z,8.07
2022-11-05T15:54:44.146Z,7.53
2022-11-05T15:57:21.014Z,5.00
2022-11-05T15:59:48.054Z,4.93
2022-11-05T16:02:23.783Z,4.80
2022-11-05T16:04:51.304Z,6.32
2022-11-05T16:07:18.565Z,4.30
2022-11-05T16:09:57.619Z,4.72
2022-11-05T16:12:33.744Z,5.60
2022-11-05T16:15:00.175Z,4.32
2022-11-05T16:17:31.371Z,4.63
2022-11-05T16:19:58.024Z,6.68
2022-11-05T16:22:25.574Z,5.78
2022-11-05T16:24:52.338Z,7.18
2022-11-05T16:27:21.976Z,4.85
2022-11-05T16:29:52.092Z,4.28
2022-11-05T16:32:30.696Z,4.65
2022-11-05T16:35:00.924Z,7.10
2022-11-05T16:37:29.753Z,4.63
2022-11-05T16:39:56.605Z,7.25
2022-11-05T16:42:23.173Z,11.45
2022-11-05T16:44:51.599Z,6.90
2022-11-05T16:47:18.865Z,6.53
2022-11-05T16:49:47.077Z,7.43
2022-11-05T16:52:14.657Z,6.15
2022-11-05T16:54:41.667Z,5.63
2022-11-05T16:57:20.852Z,6.05
2022-11-05T16:59:47.361Z,5.72
2022-11-05T17:02:14.064Z,5.38
2022-11-05T17:04:40.960Z,7.38
2022-11-05T17:07:07.457Z,6.68
2022-11-05T17:09:34.062Z,7.07
2022-11-05T17:12:02.348Z,4.65
2022-11-05T17:14:28.956Z,7.05
2022-11-05T17:16:55.851Z,5.72
2022-11-05T17:19:22.329Z,7.10
2022-11-05T17:21:50.001Z,6.43
2022-11-05T17:24:16.865Z,7.53
2022-11-05T17:26:43.466Z,7.80
2022-11-05T17:29:10.039Z,4.70
2022-11-05T17:31:39.712Z,8.18
2022-11-05T17:34:09.288Z,5.13
2022-11-05T17:36:35.873Z,7.32
2022-11-05T17:39:02.469Z,6.32
2022-11-05T17:41:28.958Z,8.00
2022-11-05T17:43:57.214Z,5.90
2022-11-05T17:46:24.820Z,6.82
2022-11-05T17:48:51.683Z,6.38
2022-11-05T17:51:19.620Z,5.88
2022-11-05T17:53:48.748Z,5.72
2022-11-05T17:56:28.831Z,7.22
2022-11-05T17:59:00.694Z,7.95
2022-11-05T18:01:30.731Z,6.70
2022-11-05T18:03:59.540Z,6.10
2022-11-05T18:06:28.246Z,9.27
2022-11-05T18:08:54.863Z,8.93
2022-11-05T18:11:21.352Z,11.55
2022-11-05T18:13:48.085Z,6.93
2022-11-05T18:16:14.890Z,10.23
2022-11-05T18:18:41.534Z,6.68
2022-11-05T18:21:08.324Z,6.85
2022-11-05T18:23:35.031Z,4.82
2022-11-05T18:26:01.537Z,9.15
2022-11-05T18:28:31.026Z,5.57
2022-11-05T18:30:57.478Z,10.75
2022-11-05T18:33:24.578Z,37.97
2022-11-05T18:35:51.135Z,19.17
2022-11-05T18:38:17.692Z,10.27
2022-11-05T18:40:44.421Z,14.77
2022-11-05T18:43:11.422Z,9.30
2022-11-05T18:45:38.255Z,10.82
2022-11-05T18:48:05.253Z,10.68
2022-11-05T18:50:31.792Z,10.35
2022-11-05T18:52:58.508Z,7.60
2022-11-05T18:55:25.555Z,9.57
2022-11-05T18:57:52.357Z,8.98
2022-11-05T19:00:20.233Z,10.63
2022-11-05T19:02:47.094Z,9.23
2022-11-05T19:05:28.513Z,8.73
2022-11-05T19:07:55.766Z,7.93
2022-11-05T19:10:22.493Z,9.43
2022-11-05T19:12:49.248Z,10.18
2022-11-05T19:15:15.893Z,8.45
2022-11-05T19:17:42.588Z,9.60
2022-11-05T19:20:09.869Z,8.65
2022-11-05T19:22:36.649Z,6.60
2022-11-05T19:25:04.240Z,8.45
2022-11-05T19:27:30.809Z,7.60
2022-11-05T19:29:57.547Z,7.68
2022-11-05T19:32:24.726Z,9.35
2022-11-05T19:34:51.332Z,8.18
2022-11-05T19:37:19.150Z,6.47
2022-11-05T19:39:45.751Z,7.43
2022-11-05T19:42:12.639Z,6.57
2022-11-05T19:44:39.115Z,6.57
2022-11-05T19:47:05.771Z,5.95
2022-11-05T19:49:32.567Z,9.07
2022-11-05T19:51:59.216Z,6.40
2022-11-05T19:54:25.939Z,6.07
2022-11-05T19:56:52.857Z,6.28
2022-11-05T19:59:19.434Z,7.35
2022-11-05T20:01:46.241Z,6.78
2022-11-05T20:04:13.172Z,9.45
2022-11-05T20:06:40.773Z,6.55
2022-11-05T20:09:27.088Z,6.95
2022-11-05T20:11:56.184Z,8.85
2022-11-05T20:14:25.345Z,6.47
2022-11-05T20:16:55.301Z,6.05
2022-11-05T20:19:23.181Z,8.82
2022-11-05T20:21:49.953Z,7.03
2022-11-05T20:24:24.276Z,7.03
2022-11-05T20:26:51.921Z,7.22
2022-11-05T20:29:18.754Z,7.90
2022-11-05T20:31:45.554Z,8.63
2022-11-05T20:34:12.486Z,7.32
2022-11-05T20:36:39.627Z,11.32
2022-11-05T20:39:06.350Z,7.50
2022-11-05T20:41:33.345Z,11.55
2022-11-05T20:44:00.064Z,9.70
2022-11-05T20:46:27.052Z,13.07
2022-11-05T20:48:53.935Z,9.45
2022-11-05T20:51:24.306Z,9.10
2022-11-05T20:53:55.454Z,8.70
2022-11-05T20:56:28.115Z,7.00
2022-11-05T20:58:57.941Z,7.90
2022-11-05T21:01:25.975Z,11.35
2022-11-05T21:03:52.722Z,8.85
2022-11-05T21:06:19.335Z,7.57
2022-11-05T21:08:50.072Z,10.15
2022-11-05T21:11:18.748Z,6.85
2022-11-05T21:13:45.989Z,7.50
2022-11-05T21:16:17.978Z,7.20
2022-11-05T21:18:45.559Z,7.78
2022-11-05T21:21:20.035Z,7.28
2022-11-05T21:23:46.988Z,8.52
2022-11-05T21:26:15.405Z,15.55
2022-11-05T21:28:42.527Z,11.75
2022-11-05T21:31:09.940Z,9.50
2022-11-05T21:33:36.507Z,8.60
2022-11-05T21:36:09.046Z,5.97
2022-11-05T21:38:35.995Z,5.80
2022-11-05T21:41:03.896Z,10.15
2022-11-05T21:43:30.677Z,6.60
2022-11-05T21:46:04.005Z,6.57
2022-11-05T21:48:31.131Z,8.02
2022-11-05T21:51:16.583Z,6.10
2022-11-05T21:54:01.584Z,10.00
2022-11-05T21:56:46.994Z,7.75
2022-11-05T21:59:34.983Z,12.20
2022-11-05T22:02:02.514Z,15.60
2022-11-05T22:04:30.743Z,21.15
2022-11-05T22:06:57.824Z,13.43
2022-11-05T22:09:25.788Z,7.57
2022-11-05T22:11:52.599Z,7.57
2022-11-05T22:14:19.369Z,5.95
2022-11-05T22:16:46.216Z,7.93
2022-11-05T22:19:12.959Z,8.07
2022-11-05T22:21:39.854Z,7.53
2022-11-05T22:24:07.202Z,9.43
2022-11-05T22:26:37.991Z,10.13
2022-11-05T22:29:05.875Z,6.88
2022-11-05T22:31:36.197Z,6.55
2022-11-05T22:34:04.331Z,7.75
2022-11-05T22:36:32.649Z,7.10
2022-11-05T22:38:59.344Z,5.95
2022-11-05T22:41:26.322Z,7.45
2022-11-05T22:43:52.855Z,7.13
2022-11-05T22:46:23.047Z,7.25
2022-11-05T22:48:50.436Z,6.63
2022-11-05T22:51:19.953Z,5.13
2022-11-05T22:53:47.079Z,7.43
2022-11-05T22:56:16.379Z,7.45
2022-11-05T22:58:43.540Z,4.38
2022-11-05T23:01:11.831Z,5.28
2022-11-05T23:03:40.082Z,3.70
2022-11-05T23:06:30.305Z,3.42
2022-11-05T23:09:16.154Z,4.78
2022-11-05T23:11:44.752Z,4.72
2022-11-05T23:14:13.035Z,3.05
2022-11-05T23:16:59.794Z,2.88
2022-11-05T23:19:45.171Z,3.33
2022-11-05T23:22:38.935Z,4.05
2022-11-05T23:25:08.609Z,7.45
2022-11-05T23:27:37.210Z,4.03
2022-11-05T23:30:07.409Z,4.70
2022-11-05T23:32:34.236Z,4.05
2022-11-05T23:35:00.729Z,2.67
2022-11-05T23:37:47.931Z,4.32
2022-11-05T23:40:18.191Z,4.95
2022-11-05T23:43:03.910Z,5.20
2022-11-05T23:45:51.778Z,3.83
2022-11-05T23:48:24.928Z,5.95
2022-11-05T23:50:57.392Z,4.93
2022-11-05T23:53:24.319Z,5.22
2022-11-05T23:55:50.883Z,4.32
2022-11-05T23:58:18.443Z,6.82
